Time;durP1;ratioP1;P1;durP2;ratioP2;P2;SDS_P1;SDS_P2;PMS_P1;PMS_P2;Temp;Humidity;BMP_temperature;BMP_pressure;BME280_temperature;BME280_humidity;BME280_pressure;Samples;Min_cycle;Max_cycle;Signal;HPM_P1;HPM_P2
2022/07/25 00:00:12;;;;;;;1999.90;999.90;;;18.10;97.90;;;;;;5029641;28;20113;-83
2022/07/25 00:02:39;;;;;;;1999.90;999.90;;;18.10;98.30;;;;;;5032017;28;20183;-82
2022/07/25 00:05:05;;;;;;;1999.90;999.90;;;18.00;98.60;;;;;;5030932;28;20052;-83
2022/07/25 00:07:30;;;;;;;1999.90;999.90;;;18.00;98.10;;;;;;5028322;28;20465;-83
2022/07/25 00:09:56;;;;;;;1999.90;999.90;;;17.90;98.00;;;;;;5023717;28;20076;-84
2022/07/25 00:12:22;;;;;;;1999.90;999.90;;;17.80;97.60;;;;;;5030799;28;20029;-84
2022/07/25 00:14:47;;;;;;;1999.90;999.90;;;17.80;97.30;;;;;;5039259;28;20118;-84
2022/07/25 00:17:13;;;;;;;1999.90;999.90;;;17.80;97.50;;;;;;5039848;28;20033;-84
2022/07/25 00:19:40;;;;;;;1999.90;999.90;;;17.90;98.30;;;;;;5036049;28;20031;-85
2022/07/25 00:22:06;;;;;;;1999.90;999.90;;;17.90;98.00;;;;;;5037836;28;20039;-84
2022/07/25 00:24:31;;;;;;;1999.90;999.90;;;17.90;99.00;;;;;;5035459;28;20033;-84
2022/07/25 00:26:57;;;;;;;1999.90;999.90;;;17.70;99.00;;;;;;5031152;28;20053;-84
2022/07/25 00:29:23;;;;;;;1999.90;999.90;;;17.70;99.80;;;;;;5033173;28;20034;-83
2022/07/25 00:31:49;;;;;;;1999.90;999.90;;;17.70;99.90;;;;;;5031319;28;20481;-83
2022/07/25 00:34:14;;;;;;;1999.90;999.90;;;17.70;99.30;;;;;;5030100;28;20055;-82
2022/07/25 00:36:40;;;;;;;1999.90;999.90;;;17.60;99.90;;;;;;5012342;28;20033;-83
2022/07/25 00:39:06;;;;;;;1999.90;999.90;;;17.60;99.90;;;;;;5029495;28;20413;-83
2022/07/25 00:41:31;;;;;;;1999.90;999.90;;;17.50;99.90;;;;;;5030044;28;20029;-83
2022/07/25 00:43:57;;;;;;;1999.90;999.90;;;17.50;99.90;;;;;;5024601;28;20033;-84
2022/07/25 00:46:23;;;;;;;1999.90;999.90;;;17.50;99.40;;;;;;5042152;28;20026;-84
2022/07/25 00:48:48;;;;;;;1999.90;999.90;;;17.40;99.90;;;;;;5032930;28;20030;-82
2022/07/25 00:51:15;;;;;;;1999.90;999.90;;;17.40;99.90;;;;;;5035941;28;20217;-82
2022/07/25 00:53:41;;;;;;;1999.90;999.90;;;17.40;99.90;;;;;;5019515;28;20033;-83
2022/07/25 00:56:07;;;;;;;1999.90;999.90;;;17.20;99.90;;;;;;5036224;28;20052;-83
2022/07/25 00:58:33;;;;;;;1999.90;999.90;;;17.20;99.90;;;;;;5033125;28;20025;-82
2022/07/25 01:01:00;;;;;;;1999.90;999.90;;;17.20;99.90;;;;;;5024064;28;20461;-83
2022/07/25 01:03:27;;;;;;;1999.90;999.90;;;17.20;99.90;;;;;;5036094;28;20036;-83
2022/07/25 01:05:52;;;;;;;1999.90;999.90;;;17.20;99.90;;;;;;5024922;28;20060;-83
2022/07/25 01:08:20;;;;;;;1999.90;999.90;;;17.10;99.90;;;;;;5030895;28;20590;-83
2022/07/25 01:10:46;;;;;;;1999.90;999.90;;;16.90;99.90;;;;;;5028962;28;20025;-82
2022/07/25 01:13:12;;;;;;;1999.90;999.90;;;17.00;99.90;;;;;;5040946;28;20025;-83
2022/07/25 01:15:38;;;;;;;1999.90;999.90;;;17.00;99.90;;;;;;5042603;28;20074;-83
2022/07/25 01:18:03;;;;;;;1999.90;999.90;;;17.00;99.90;;;;;;5025282;28;20412;-82
2022/07/25 01:20:31;;;;;;;1999.90;999.90;;;16.90;99.90;;;;;;5042939;28;20037;-82
2022/07/25 01:22:57;;;;;;;1999.90;999.90;;;16.80;99.90;;;;;;5040968;28;20492;-82
2022/07/25 01:25:23;;;;;;;1999.90;999.90;;;16.80;99.90;;;;;;5033538;28;20025;-81
2022/07/25 01:27:50;;;;;;;1999.90;999.90;;;16.90;99.90;;;;;;5036904;28;20196;-82
2022/07/25 01:30:16;;;;;;;1999.90;999.90;;;16.90;99.90;;;;;;5035048;28;20030;-82
2022/07/25 01:32:43;;;;;;;1999.90;999.90;;;16.80;99.90;;;;;;5035453;28;20403;-81
2022/07/25 01:35:09;;;;;;;1999.90;999.90;;;16.80;99.90;;;;;;5022604;28;20178;-82
2022/07/25 01:37:35;;;;;;;1999.90;999.90;;;16.70;99.90;;;;;;5035226;28;20556;-81
2022/07/25 01:40:02;;;;;;;1999.90;999.90;;;16.70;99.90;;;;;;5030705;28;20029;-82
2022/07/25 01:42:28;;;;;;;1999.90;999.90;;;16.80;99.90;;;;;;5038631;28;20037;-82
2022/07/25 01:44:54;;;;;;;1999.90;999.90;;;16.80;99.90;;;;;;5035736;28;20041;-82
2022/07/25 01:47:20;;;;;;;1999.90;999.90;;;16.80;99.90;;;;;;5039828;28;20022;-82
2022/07/25 01:49:46;;;;;;;1999.90;999.90;;;16.80;99.90;;;;;;5038334;28;20032;-82
2022/07/25 01:52:12;;;;;;;1999.90;999.90;;;16.70;99.90;;;;;;5042101;28;20492;-82
2022/07/25 01:54:39;;;;;;;1999.90;999.90;;;16.60;99.90;;;;;;5039159;28;20163;-82
2022/07/25 01:57:05;;;;;;;1999.90;999.90;;;16.60;99.90;;;;;;5035213;28;20124;-82
2022/07/25 01:59:30;;;;;;;1999.90;999.90;;;16.40;99.90;;;;;;5015261;28;20025;-82
2022/07/25 02:01:56;;;;;;;1999.90;999.90;;;16.40;99.90;;;;;;5028752;28;20050;-82
2022/07/25 02:04:22;;;;;;;1999.90;999.90;;;16.40;99.90;;;;;;5030632;28;20033;-82
2022/07/25 02:06:48;;;;;;;1999.90;999.90;;;16.40;99.90;;;;;;5032034;28;20598;-82
2022/07/25 02:09:14;;;;;;;1999.90;999.90;;;16.50;99.90;;;;;;5028097;28;20095;-82
2022/07/25 02:11:39;;;;;;;1999.90;999.90;;;16.50;99.90;;;;;;5025970;28;20506;-82
2022/07/25 02:14:05;;;;;;;1999.90;999.90;;;16.50;99.90;;;;;;5043952;28;20068;-82
2022/07/25 02:16:31;;;;;;;1999.90;999.90;;;16.40;99.90;;;;;;5024539;28;20029;-82
2022/07/25 02:18:56;;;;;;;1999.90;999.90;;;16.30;99.90;;;;;;5038267;28;20037;-82
2022/07/25 02:21:22;;;;;;;1999.90;999.90;;;16.10;99.90;;;;;;5023483;28;20030;-82
2022/07/25 02:23:48;;;;;;;1999.90;999.90;;;16.20;99.90;;;;;;5039190;28;20458;-82
2022/07/25 02:26:14;;;;;;;1999.90;999.90;;;16.20;99.90;;;;;;5036576;28;20107;-82
2022/07/25 02:28:40;;;;;;;1999.90;999.90;;;16.20;99.90;;;;;;5034556;28;20033;-82
2022/07/25 02:31:05;;;;;;;1999.90;999.90;;;16.20;99.90;;;;;;5033764;28;20946;-83
2022/07/25 02:33:31;;;;;;;1999.90;999.90;;;16.20;99.90;;;;;;5029358;28;20075;-82
2022/07/25 02:35:57;;;;;;;1999.90;999.90;;;16.10;99.90;;;;;;5031179;28;20021;-83
2022/07/25 02:38:23;;;;;;;1999.90;999.90;;;16.10;99.90;;;;;;5029166;28;20044;-83
2022/07/25 02:40:50;;;;;;;1999.90;999.90;;;16.10;99.90;;;;;;5028497;28;20041;-82
2022/07/25 02:43:17;;;;;;;1999.90;999.90;;;16.10;99.90;;;;;;5043017;28;20057;-82
2022/07/25 02:45:42;;;;;;;1999.90;999.90;;;16.00;99.90;;;;;;5040413;28;20033;-82
2022/07/25 02:48:08;;;;;;;1999.90;999.90;;;15.90;99.90;;;;;;5023161;28;20033;-82
2022/07/25 02:50:34;;;;;;;1999.90;999.90;;;15.80;99.90;;;;;;5039488;28;20037;-83
2022/07/25 02:53:00;;;;;;;1999.90;999.90;;;15.70;99.90;;;;;;5038443;28;20086;-82
2022/07/25 02:55:26;;;;;;;1999.90;999.90;;;15.70;99.90;;;;;;5034357;28;20045;-83
2022/07/25 02:57:51;;;;;;;1999.90;999.90;;;15.70;99.90;;;;;;5037170;28;20481;-82
2022/07/25 03:00:18;;;;;;;1999.90;999.90;;;15.70;99.90;;;;;;5031403;28;20378;-82
2022/07/25 03:02:43;;;;;;;1999.90;999.90;;;15.80;99.90;;;;;;5032483;28;20050;-82
2022/07/25 03:05:13;;;;;;;1999.90;999.90;;;15.80;99.90;;;;;;5012050;28;20025;-83
2022/07/25 03:07:40;;;;;;;1999.90;999.90;;;15.70;99.90;;;;;;5029859;28;20101;-83
2022/07/25 03:10:08;;;;;;;1999.90;999.90;;;15.70;99.90;;;;;;5026520;28;20025;-82
2022/07/25 03:12:34;;;;;;;1999.90;999.90;;;15.70;99.90;;;;;;5024516;28;20563;-83
2022/07/25 03:15:00;;;;;;;1999.90;999.90;;;15.70;99.90;;;;;;5039781;28;20123;-82
2022/07/25 03:17:27;;;;;;;1999.90;999.90;;;15.80;99.90;;;;;;5042777;28;20029;-82
2022/07/25 03:19:53;;;;;;;1999.90;999.90;;;15.80;99.90;;;;;;5037288;28;20037;-83
2022/07/25 03:22:19;;;;;;;1999.90;999.90;;;15.70;99.90;;;;;;5035375;28;20564;-82
2022/07/25 03:24:45;;;;;;;1999.90;999.90;;;15.80;99.90;;;;;;5034622;28;20021;-83
2022/07/25 03:27:11;;;;;;;1999.90;999.90;;;15.70;99.90;;;;;;5034216;28;20026;-82
2022/07/25 03:29:36;;;;;;;1999.90;999.90;;;15.70;99.90;;;;;;5033649;28;20558;-83
2022/07/25 03:32:03;;;;;;;1999.90;999.90;;;15.60;99.90;;;;;;5034016;28;20044;-82
2022/07/25 03:34:29;;;;;;;1999.90;999.90;;;15.60;99.90;;;;;;5012190;28;20407;-83
2022/07/25 03:36:54;;;;;;;1999.90;999.90;;;15.60;99.90;;;;;;5029617;28;20032;-83
2022/07/25 03:39:20;;;;;;;1999.90;999.90;;;15.60;99.90;;;;;;5023767;28;20171;-82
2022/07/25 03:41:46;;;;;;;1999.90;999.90;;;15.60;99.90;;;;;;5032046;28;20484;-83
2022/07/25 03:44:12;;;;;;;1999.90;999.90;;;15.60;99.90;;;;;;5019709;28;20043;-82
2022/07/25 03:46:38;;;;;;;1999.90;999.90;;;15.50;99.90;;;;;;5040961;28;20036;-83
2022/07/25 03:49:04;;;;;;;1999.90;999.90;;;15.40;99.90;;;;;;5036196;28;20037;-84
2022/07/25 03:51:29;;;;;;;1999.90;999.90;;;15.40;99.90;;;;;;5038925;28;20112;-83
2022/07/25 03:54:01;;;;;;;1999.90;999.90;;;15.40;99.90;;;;;;5029631;28;20400;-83
2022/07/25 03:56:28;;;;;;;1999.90;999.90;;;15.30;99.90;;;;;;5009749;28;20067;-84
2022/07/25 03:58:54;;;;;;;1999.90;999.90;;;15.30;99.90;;;;;;5033473;28;20032;-84
2022/07/25 04:01:20;;;;;;;1999.90;999.90;;;15.30;99.90;;;;;;5032934;28;20230;-84
2022/07/25 04:03:45;;;;;;;1999.90;999.90;;;15.20;99.90;;;;;;5031046;28;20128;-83
2022/07/25 04:06:11;;;;;;;1999.90;999.90;;;15.30;99.90;;;;;;5027934;28;20493;-83
2022/07/25 04:08:37;;;;;;;1999.90;999.90;;;15.30;99.90;;;;;;5022112;28;20401;-83
2022/07/25 04:11:02;;;;;;;1999.90;999.90;;;15.40;99.90;;;;;;5010829;28;20053;-84
2022/07/25 04:13:28;;;;;;;1999.90;999.90;;;15.50;99.90;;;;;;5033084;28;20033;-83
2022/07/25 04:15:54;;;;;;;1999.90;999.90;;;15.50;99.90;;;;;;5040525;28;20034;-83
2022/07/25 04:18:20;;;;;;;1999.90;999.90;;;15.60;99.90;;;;;;5033004;28;20038;-83
2022/07/25 04:20:46;;;;;;;1999.90;999.90;;;15.60;99.90;;;;;;5037614;28;20661;-82
2022/07/25 04:23:12;;;;;;;1999.90;999.90;;;15.70;99.90;;;;;;5025313;28;20069;-83
2022/07/25 04:25:38;;;;;;;1999.90;999.90;;;15.80;99.90;;;;;;5034211;28;20166;-83
2022/07/25 04:28:04;;;;;;;1999.90;999.90;;;15.80;99.90;;;;;;5010175;28;20088;-83
2022/07/25 04:30:29;;;;;;;1999.90;999.90;;;15.90;99.90;;;;;;5026979;28;20021;-83
2022/07/25 04:32:55;;;;;;;1999.90;999.90;;;15.90;99.90;;;;;;5012617;28;20030;-83
2022/07/25 04:35:21;;;;;;;1999.90;999.90;;;16.10;99.90;;;;;;5030208;28;20038;-83
2022/07/25 04:37:47;;;;;;;1999.90;999.90;;;16.10;99.90;;;;;;5032502;28;20416;-83
2022/07/25 04:40:12;;;;;;;1999.90;999.90;;;16.30;99.90;;;;;;5033264;28;20150;-83
2022/07/25 04:42:38;;;;;;;1999.90;999.90;;;16.30;99.90;;;;;;5039130;28;20041;-83
2022/07/25 04:45:04;;;;;;;1999.90;999.90;;;16.30;99.90;;;;;;5042346;28;20033;-83
2022/07/25 04:47:29;;;;;;;1999.90;999.90;;;16.40;99.90;;;;;;5025314;28;20495;-83
2022/07/25 04:49:55;;;;;;;1999.90;999.90;;;16.30;99.90;;;;;;5021315;28;20144;-83
2022/07/25 04:52:21;;;;;;;1999.90;999.90;;;16.50;99.90;;;;;;5037451;28;20035;-83
2022/07/25 04:54:46;;;;;;;1999.90;999.90;;;16.70;99.90;;;;;;5030537;28;20042;-82
2022/07/25 04:57:12;;;;;;;1999.90;999.90;;;16.80;99.90;;;;;;5023233;28;20477;-83
2022/07/25 04:59:38;;;;;;;1999.90;999.90;;;16.90;99.90;;;;;;5024321;28;20139;-84
2022/07/25 05:02:03;;;;;;;1999.90;999.90;;;16.90;99.90;;;;;;5036654;28;20053;-83
2022/07/25 05:04:29;;;;;;;1999.90;999.90;;;17.10;99.90;;;;;;5033215;28;20033;-83
2022/07/25 05:06:54;;;;;;;1999.90;999.90;;;17.20;99.90;;;;;;5022358;28;20056;-83
2022/07/25 05:09:20;;;;;;;1999.90;999.90;;;17.20;99.90;;;;;;5021363;28;20061;-85
2022/07/25 05:11:46;;;;;;;1999.90;999.90;;;17.10;99.90;;;;;;5023132;28;20484;-83
2022/07/25 05:14:12;;;;;;;1999.90;999.90;;;17.30;99.90;;;;;;5028925;28;20120;-83
2022/07/25 05:16:38;;;;;;;1999.90;999.90;;;17.50;99.90;;;;;;5025684;28;20036;-83
2022/07/25 05:19:04;;;;;;;1999.90;999.90;;;17.70;99.90;;;;;;5031096;28;20036;-83
2022/07/25 05:21:29;;;;;;;1999.90;999.90;;;17.80;99.90;;;;;;5032633;28;20045;-83
2022/07/25 05:23:55;;;;;;;1999.90;999.90;;;17.90;99.90;;;;;;5032935;28;20034;-83
2022/07/25 05:26:21;;;;;;;1999.90;999.90;;;18.10;99.90;;;;;;5027370;28;20033;-83
2022/07/25 05:28:46;;;;;;;1999.90;999.90;;;18.30;99.90;;;;;;5008304;28;20129;-83
2022/07/25 05:31:12;;;;;;;1999.90;999.90;;;18.30;99.90;;;;;;5024365;28;20485;-84
2022/07/25 05:33:38;;;;;;;1999.90;999.90;;;18.50;99.90;;;;;;5019176;28;20048;-83
2022/07/25 05:36:04;;;;;;;1999.90;999.90;;;18.60;99.90;;;;;;5026987;28;20048;-87
2022/07/25 05:38:30;;;;;;;1999.90;999.90;;;18.60;99.90;;;;;;5010217;28;20044;-87
2022/07/25 05:40:56;;;;;;;1999.90;999.90;;;18.70;99.90;;;;;;5038568;28;20095;-85
2022/07/25 05:43:21;;;;;;;1999.90;999.90;;;18.90;99.90;;;;;;5033897;28;20030;-84
2022/07/25 05:45:47;;;;;;;1999.90;999.90;;;18.90;99.90;;;;;;5030837;28;20014;-82
2022/07/25 05:48:14;;;;;;;1999.90;999.90;;;19.00;99.90;;;;;;5034891;28;20515;-77
2022/07/25 05:50:40;;;;;;;1999.90;999.90;;;19.10;99.90;;;;;;5043518;28;20025;-78
2022/07/25 05:53:06;;;;;;;1999.90;999.90;;;19.20;99.90;;;;;;5035579;28;20036;-77
2022/07/25 05:55:32;;;;;;;1999.90;999.90;;;19.20;99.90;;;;;;5034897;28;20028;-78
2022/07/25 05:57:58;;;;;;;1999.90;999.90;;;19.40;99.90;;;;;;5032975;28;20128;-78
2022/07/25 06:00:24;;;;;;;1999.90;999.90;;;19.60;99.90;;;;;;5034816;28;20125;-77
2022/07/25 06:02:50;;;;;;;1999.90;999.90;;;19.60;99.90;;;;;;5036219;28;20131;-81
2022/07/25 06:05:16;;;;;;;1999.90;999.90;;;19.80;99.90;;;;;;5034207;28;20116;-80
2022/07/25 06:07:41;;;;;;;1999.90;999.90;;;19.90;99.90;;;;;;5031350;28;20025;-82
2022/07/25 06:10:08;;;;;;;1999.90;999.90;;;20.10;99.90;;;;;;5008658;28;20029;-82
2022/07/25 06:12:33;;;;;;;1999.90;999.90;;;20.10;98.70;;;;;;5041429;28;20153;-82
2022/07/25 06:15:00;;;;;;;1999.90;999.90;;;20.30;98.70;;;;;;5021982;28;20455;-83
2022/07/25 06:17:25;;;;;;;1999.90;999.90;;;20.30;96.80;;;;;;5020646;28;20079;-82
2022/07/25 06:19:51;;;;;;;1999.90;999.90;;;20.40;96.90;;;;;;5031413;28;20037;-82
2022/07/25 06:22:18;;;;;;;1999.90;999.90;;;20.50;98.50;;;;;;5020350;28;20029;-81
2022/07/25 06:24:44;;;;;;;1999.90;999.90;;;20.60;99.60;;;;;;5018588;28;20060;-81
2022/07/25 06:27:10;;;;;;;1999.90;999.90;;;20.70;97.30;;;;;;5035098;28;20500;-79
2022/07/25 06:29:36;;;;;;;1999.90;999.90;;;20.70;98.40;;;;;;5030237;28;20025;-80
2022/07/25 06:32:02;;;;;;;1999.90;999.90;;;20.90;97.60;;;;;;5029517;28;20115;-81
2022/07/25 06:34:28;;;;;;;1999.90;999.90;;;21.00;97.20;;;;;;5012955;28;20124;-79
2022/07/25 06:36:54;;;;;;;1999.90;999.90;;;21.10;97.00;;;;;;5029452;28;20124;-79
2022/07/25 06:39:19;;;;;;;1999.90;999.90;;;21.20;99.00;;;;;;5008436;28;20216;-79
2022/07/25 06:41:45;;;;;;;1999.90;999.90;;;21.30;96.80;;;;;;5040697;28;20401;-78
2022/07/25 06:44:11;;;;;;;1999.90;999.90;;;21.50;97.80;;;;;;5023415;28;20550;-81
2022/07/25 06:46:36;;;;;;;1999.90;999.90;;;21.60;96.90;;;;;;5040498;28;20533;-78
2022/07/25 06:49:02;;;;;;;1999.90;999.90;;;21.70;96.10;;;;;;5042078;28;20025;-79
2022/07/25 06:51:28;;;;;;;1999.90;999.90;;;21.90;96.20;;;;;;5040856;28;20036;-79
2022/07/25 06:53:53;;;;;;;1999.90;999.90;;;22.00;95.40;;;;;;5036358;28;20049;-79
2022/07/25 06:56:19;;;;;;;1999.90;999.90;;;22.20;94.80;;;;;;5036519;28;20070;-79
2022/07/25 06:58:45;;;;;;;1999.90;999.90;;;22.30;95.00;;;;;;5033474;28;20112;-78
2022/07/25 07:01:10;;;;;;;1999.90;999.90;;;22.60;95.20;;;;;;5034149;28;20033;-80
2022/07/25 07:03:37;;;;;;;1999.90;999.90;;;22.70;93.10;;;;;;5033715;28;20532;-79
2022/07/25 07:06:08;;;;;;;1999.90;999.90;;;22.80;92.40;;;;;;5031319;28;20027;-80
2022/07/25 07:08:34;;;;;;;1999.90;999.90;;;22.90;91.60;;;;;;5029465;28;20068;-81
2022/07/25 07:11:00;;;;;;;1999.90;999.90;;;22.90;92.10;;;;;;5043315;28;20022;-81
2022/07/25 07:13:26;;;;;;;1999.90;999.90;;;23.00;92.60;;;;;;5039909;28;20147;-80
2022/07/25 07:15:52;;;;;;;1999.90;999.90;;;23.10;92.10;;;;;;5020792;28;20030;-80
2022/07/25 07:18:18;;;;;;;1999.90;999.90;;;23.20;92.60;;;;;;5014614;28;20088;-80
2022/07/25 07:20:46;;;;;;;1999.90;999.90;;;23.40;91.20;;;;;;5033081;28;20052;-82
2022/07/25 07:23:12;;;;;;;1999.90;999.90;;;23.60;92.20;;;;;;5035518;28;20028;-81
2022/07/25 07:25:38;;;;;;;1999.90;999.90;;;23.80;90.60;;;;;;5035811;28;20128;-81
2022/07/25 07:28:04;;;;;;;1999.90;999.90;;;23.90;88.30;;;;;;5034290;28;20028;-81
2022/07/25 07:30:31;;;;;;;1999.90;999.90;;;24.10;90.10;;;;;;5031704;28;20048;-80
2022/07/25 07:32:56;;;;;;;1999.90;999.90;;;24.20;82.90;;;;;;5005719;28;20145;-81
2022/07/25 07:35:24;;;;;;;1999.90;999.90;;;24.40;82.90;;;;;;5028316;28;20128;-79
2022/07/25 07:37:51;;;;;;;1999.90;999.90;;;24.50;83.60;;;;;;5010991;28;20099;-80
2022/07/25 07:40:17;;;;;;;1999.90;999.90;;;24.60;80.50;;;;;;5032092;28;20025;-79
2022/07/25 07:42:45;;;;;;;1999.90;999.90;;;24.80;80.50;;;;;;5031070;28;20060;-79
2022/07/25 07:45:17;;;;;;;1999.90;999.90;;;25.00;82.10;;;;;;5030649;28;20047;-81
2022/07/25 07:47:46;;;;;;;1999.90;999.90;;;25.20;80.70;;;;;;5047039;28;20065;-79
2022/07/25 07:50:13;;;;;;;1999.90;999.90;;;25.10;77.30;;;;;;5028767;28;20021;-79
2022/07/25 07:52:39;;;;;;;1999.90;999.90;;;25.30;79.30;;;;;;5015564;28;20067;-79
2022/07/25 07:57:50;;;;;;;1999.90;999.90;;;25.60;74.60;;;;;;5031827;28;20039;-79
2022/07/25 08:00:16;;;;;;;1999.90;996.03;;;25.60;75.40;;;;;;5036669;28;20440;-79
2022/07/25 08:02:47;;;;;;;1999.90;950.65;;;25.70;74.80;;;;;;5026509;28;20049;-79
2022/07/25 08:05:19;;;;;;;1999.90;997.95;;;25.90;75.80;;;;;;5031356;28;20074;-79
2022/07/25 08:07:44;;;;;;;1999.90;999.90;;;26.00;75.60;;;;;;5025092;28;20018;-78
2022/07/25 08:10:10;;;;;;;1999.90;979.75;;;26.10;73.20;;;;;;5033656;28;20033;-79
2022/07/25 08:12:40;;;;;;;1999.90;999.90;;;26.20;72.00;;;;;;5046270;28;20408;-79
2022/07/25 08:15:06;;;;;;;1999.90;972.20;;;26.40;72.40;;;;;;5038032;28;20240;-79
2022/07/25 08:17:32;;;;;;;1999.90;999.90;;;26.50;69.00;;;;;;5041306;28;20116;-79
2022/07/25 08:19:57;;;;;;;1999.90;999.90;;;26.60;72.80;;;;;;5033189;28;20113;-78
2022/07/25 08:22:23;;;;;;;1999.90;999.90;;;26.80;72.10;;;;;;5030556;28;20489;-79
2022/07/25 08:24:49;;;;;;;1820.90;881.03;;;27.00;68.40;;;;;;5010850;28;20092;-77
2022/07/25 08:27:14;;;;;;;1999.90;999.90;;;27.00;71.20;;;;;;5032910;28;20032;-80
2022/07/25 08:29:40;;;;;;;1999.90;999.90;;;27.10;67.20;;;;;;5034441;28;20123;-79
2022/07/25 08:32:06;;;;;;;1999.90;999.90;;;27.00;66.00;;;;;;5031411;28;20516;-79
2022/07/25 08:34:31;;;;;;;1999.90;999.90;;;27.10;69.80;;;;;;5013159;28;20045;-79
2022/07/25 08:36:57;;;;;;;1999.90;999.90;;;27.30;69.50;;;;;;5031281;28;20061;-78
2022/07/25 08:39:23;;;;;;;1976.85;975.63;;;27.60;67.00;;;;;;5036470;28;20029;-79
2022/07/25 08:41:49;;;;;;;1999.90;999.90;;;27.70;66.20;;;;;;5033272;28;20033;-79
2022/07/25 08:44:17;;;;;;;1999.90;999.90;;;27.80;66.30;;;;;;5028567;28;20039;-79
2022/07/25 08:46:44;;;;;;;1999.90;999.90;;;27.90;65.60;;;;;;5029381;28;20027;-79
2022/07/25 08:49:10;;;;;;;1938.22;999.90;;;28.10;66.80;;;;;;5008594;28;20401;-79
2022/07/25 08:51:37;;;;;;;1971.32;999.90;;;28.10;62.20;;;;;;5028233;28;20038;-79
2022/07/25 08:54:04;;;;;;;1831.05;999.90;;;28.40;66.00;;;;;;5031496;28;20037;-79
2022/07/25 08:56:29;;;;;;;1762.82;999.90;;;28.50;63.10;;;;;;5034073;28;20390;-78
2022/07/25 08:58:57;;;;;;;1720.60;999.90;;;28.50;64.70;;;;;;5013322;28;20041;-80
2022/07/25 09:01:23;;;;;;;1999.90;999.90;;;28.90;64.20;;;;;;5024894;28;20137;-79
2022/07/25 09:03:49;;;;;;;1943.05;999.90;;;29.00;61.40;;;;;;5026395;28;20163;-79
2022/07/25 09:06:19;;;;;;;1847.85;999.90;;;28.80;59.70;;;;;;5022761;28;20111;-78
2022/07/25 09:08:56;;;;;;;1999.90;999.90;;;28.90;56.80;;;;;;5025073;28;20030;-79
2022/07/25 09:11:26;;;;;;;1600.75;959.60;;;29.00;57.10;;;;;;5040313;28;20032;-80
2022/07/25 09:14:10;;;;;;;1545.78;993.50;;;29.00;56.90;;;;;;5013469;28;20030;-78
2022/07/25 09:16:42;;;;;;;1793.57;907.38;;;29.00;58.50;;;;;;5038133;28;20038;-79
2022/07/25 09:19:30;;;;;;;1921.05;995.45;;;29.10;56.80;;;;;;5028088;28;20034;-79
2022/07/25 09:22:01;;;;;;;1268.28;939.58;;;29.40;54.70;;;;;;5039134;28;20112;-79
2022/07/25 09:24:27;;;;;;;1527.50;899.22;;;29.70;56.50;;;;;;5029926;28;20030;-80
2022/07/25 09:26:56;;;;;;;1542.15;997.00;;;29.70;53.70;;;;;;5028698;28;20030;-81
2022/07/25 09:29:32;;;;;;;1531.85;999.90;;;29.80;51.90;;;;;;5037076;28;20087;-83
2022/07/25 09:32:00;;;;;;;1213.80;957.15;;;29.80;50.50;;;;;;5039458;28;20036;-81
2022/07/25 09:34:33;;;;;;;1821.18;990.05;;;29.70;52.40;;;;;;5031354;28;20497;-80
2022/07/25 09:37:00;;;;;;;1683.82;999.90;;;29.80;51.00;;;;;;5029962;28;20064;-80
2022/07/25 09:39:42;;;;;;;1550.90;981.97;;;30.20;50.80;;;;;;5041541;28;20029;-80
2022/07/25 09:42:21;;;;;;;1611.00;999.90;;;30.30;54.30;;;;;;5046892;28;20140;-86
2022/07/25 09:45:11;;;;;;;1347.05;960.67;;;30.20;50.00;;;;;;5046640;28;20024;-82
2022/07/25 09:47:51;;;;;;;1178.80;939.22;;;30.30;50.70;;;;;;5040737;28;20033;-86
2022/07/25 09:50:17;;;;;;;1653.03;999.90;;;30.60;51.50;;;;;;5039153;28;20051;-83
2022/07/25 09:52:44;;;;;;;1228.85;957.90;;;30.80;49.20;;;;;;5036164;28;20033;-83
2022/07/25 09:55:10;;;;;;;1339.53;931.50;;;30.80;50.60;;;;;;5033319;28;20035;-84
2022/07/25 09:57:36;;;;;;;1883.80;976.10;;;30.90;52.50;;;;;;5039099;28;20025;-84
2022/07/25 10:00:04;;;;;;;1364.03;995.22;;;31.10;49.50;;;;;;5033571;28;20096;-84
2022/07/25 10:02:49;;;;;;;1276.80;999.90;;;31.00;48.50;;;;;;5030062;28;20061;-81
2022/07/25 10:05:29;;;;;;;1273.22;989.00;;;30.90;51.90;;;;;;5033647;28;20024;-80
2022/07/25 10:07:56;;;;;;;1822.53;999.90;;;31.10;51.40;;;;;;5027804;28;20057;-80
2022/07/25 10:10:36;;;;;;;1353.13;994.75;;;31.60;48.40;;;;;;5068647;28;20021;-80
2022/07/25 10:13:09;;;;;;;1882.13;999.90;;;31.90;54.20;;;;;;5041020;28;20060;-80
2022/07/25 10:15:47;;;;;;;1719.15;999.90;;;31.80;45.10;;;;;;5032472;28;20397;-80
2022/07/25 10:18:15;;;;;;;1999.90;947.30;;;32.20;43.40;;;;;;5029720;28;20025;-80
2022/07/25 10:20:43;;;;;;;1999.90;926.13;;;32.10;40.30;;;;;;5012190;28;20523;-80
2022/07/25 10:23:24;;;;;;;1999.90;918.30;;;32.00;38.10;;;;;;5037064;28;20179;-81
2022/07/25 10:26:15;;;;;;;1999.90;927.45;;;32.10;35.50;;;;;;5031854;28;20017;-80
2022/07/25 10:28:50;;;;;;;1999.90;839.33;;;32.10;35.90;;;;;;5029497;28;20510;-82
2022/07/25 10:31:23;;;;;;;1999.90;796.67;;;32.20;35.70;;;;;;5037804;28;20033;-79
2022/07/25 10:33:57;;;;;;;1994.07;612.85;;;32.30;34.20;;;;;;5029933;28;20034;-80
2022/07/25 10:36:28;;;;;;;1158.28;292.40;;;32.40;31.20;;;;;;5029857;28;20029;-82
2022/07/25 10:38:59;;;;;;;1596.70;473.00;;;32.20;31.00;;;;;;5023126;28;20041;-81
2022/07/25 10:41:27;;;;;;;1335.68;313.50;;;32.40;30.50;;;;;;5044435;28;20024;-81
2022/07/25 10:43:56;;;;;;;1404.85;341.50;;;32.30;32.00;;;;;;5030272;28;20022;-81
2022/07/25 10:46:26;;;;;;;1999.90;999.90;;;32.50;31.80;;;;;;5039373;28;20059;-81
2022/07/25 10:49:04;;;;;;;1773.78;678.63;;;32.50;31.20;;;;;;5039310;28;20056;-80
2022/07/25 10:51:35;;;;;;;726.95;128.90;;;32.80;31.90;;;;;;5039436;28;20083;-81
2022/07/25 10:54:17;;;;;;;1999.90;999.90;;;32.80;31.80;;;;;;5033721;28;20037;-84
2022/07/25 10:56:57;;;;;;;1397.82;555.60;;;32.70;28.40;;;;;;5034496;28;20037;-79
2022/07/25 10:59:30;;;;;;;1999.90;999.90;;;33.10;28.40;;;;;;5022324;28;20030;-80
2022/07/25 11:01:57;;;;;;;1096.63;309.92;;;33.10;27.10;;;;;;5024310;28;20532;-78
2022/07/25 11:04:23;;;;;;;1999.90;999.90;;;33.30;30.30;;;;;;5022497;28;20117;-79
2022/07/25 11:06:49;;;;;;;1999.90;999.90;;;33.70;27.60;;;;;;5027295;28;20057;-80
2022/07/25 11:09:20;;;;;;;1607.00;768.53;;;33.40;27.20;;;;;;5043895;28;20110;-79
2022/07/25 11:11:48;;;;;;;1999.90;999.90;;;33.60;25.50;;;;;;5040250;28;20025;-79
2022/07/25 11:14:31;;;;;;;1999.90;999.90;;;33.60;26.50;;;;;;5034024;28;20700;-80
2022/07/25 11:17:21;;;;;;;1999.90;999.90;;;33.70;28.30;;;;;;5034425;28;20029;-80
2022/07/25 11:19:55;;;;;;;1999.90;999.90;;;34.60;24.80;;;;;;5026081;28;20056;-80
2022/07/25 11:22:20;;;;;;;1999.90;999.90;;;34.50;25.20;;;;;;5009004;28;20033;-81
2022/07/25 11:24:46;;;;;;;1999.90;999.90;;;34.60;25.90;;;;;;5025130;28;20040;-81
2022/07/25 11:27:21;;;;;;;1999.90;999.90;;;34.60;25.30;;;;;;5035231;28;20021;-80
2022/07/25 11:29:47;;;;;;;1999.90;999.90;;;34.60;25.20;;;;;;5021162;28;20028;-81
2022/07/25 11:32:12;;;;;;;1999.90;999.90;;;35.00;24.30;;;;;;5026462;28;20029;-80
2022/07/25 11:34:43;;;;;;;1999.90;999.90;;;34.90;23.90;;;;;;5025169;28;20086;-80
2022/07/25 11:37:11;;;;;;;1999.90;999.90;;;34.90;24.30;;;;;;5018388;28;20041;-79
2022/07/25 11:39:39;;;;;;;1999.90;999.90;;;35.10;24.00;;;;;;5036633;28;20683;-79
2022/07/25 11:42:10;;;;;;;1999.90;999.90;;;35.40;23.60;;;;;;5041820;28;20037;-80
2022/07/25 11:44:38;;;;;;;1999.90;999.90;;;35.20;26.40;;;;;;5026403;28;20152;-80
2022/07/25 11:47:06;;;;;;;1999.90;999.90;;;35.30;24.60;;;;;;5028748;28;20048;-81
2022/07/25 11:49:47;;;;;;;1999.90;999.90;;;36.00;25.10;;;;;;5033146;28;20018;-80
2022/07/25 11:52:28;;;;;;;1999.90;999.90;;;36.10;23.90;;;;;;5029861;28;20026;-79
2022/07/25 11:55:00;;;;;;;1999.90;999.90;;;36.30;23.40;;;;;;5032285;28;20056;-81
2022/07/25 11:57:28;;;;;;;552.75;92.07;;;36.30;23.00;;;;;;5030906;28;20116;-79
2022/07/25 11:59:55;;;;;;;1999.90;999.90;;;36.70;23.00;;;;;;5030992;28;20037;-81
2022/07/25 12:02:23;;;;;;;1999.90;999.90;;;36.00;22.20;;;;;;5027079;28;20548;-83